Terminal Aerodrome Forecast
Issued by NWS

Home | Current Version | Previous Version | Text Only | Print | Product List | Glossary On
Versions: 1 2 3 4 5 6 7 8 9 10 11 12 13 14 15
000
FTUS45 KRIW 070528
TAFCPR
TAF
KCPR 070528Z 0706/0806 11006KT P6SM BKN060
      TEMPO 0709/0712 5SM BR
     FM071200 VRB05KT P6SM VCFG SCT030 BKN120
     FM071800 04006KT P6SM SCT060 SCT100
     FM072200 07010KT P6SM VCTS BKN080CB
     FM080300 03007KT P6SM VCSH SCT050 BKN100=

USA.gov is the U.S. government's official web portal to all federal, state and local government web resources and services.